Time;durP1;ratioP1;P1;durP2;ratioP2;P2;SDS_P1;SDS_P2;PMS_P1;PMS_P2;Temp;Humidity;BMP_temperature;BMP_pressure;BME280_temperature;BME280_humidity;BME280_pressure;Samples;Min_cycle;Max_cycle;Signal;HPM_P1;HPM_P2
2021/03/08 00:00:36;;;;;;;25.95;13.93;;;;;;;;;;5056942;28;20486;-51
2021/03/08 00:03:02;;;;;;;22.08;14.27;;;;;;;;;;5056814;28;20172;-51
2021/03/08 00:05:31;;;;;;;22.95;14.95;;;;;;;;;;5056621;28;20207;-50
2021/03/08 00:07:57;;;;;;;22.48;13.93;;;;;;;;;;5056303;28;20170;-50
2021/03/08 00:10:23;;;;;;;27.13;16.57;;;;;;;;;;5055032;28;20746;-51
2021/03/08 00:12:49;;;;;;;24.40;14.40;;;;;;;;;;5055820;28;20739;-51
2021/03/08 00:15:16;;;;;;;26.20;15.85;;;;;;;;;;5054558;28;20459;-51
2021/03/08 00:17:43;;;;;;;26.00;15.95;;;;;;;;;;5054813;28;20168;-51
2021/03/08 00:20:09;;;;;;;23.98;15.07;;;;;;;;;;5055649;28;20222;-51
2021/03/08 00:22:36;;;;;;;26.13;16.45;;;;;;;;;;5054684;28;20169;-49
2021/03/08 00:25:03;;;;;;;30.90;17.08;;;;;;;;;;5054770;28;20214;-51
2021/03/08 00:27:29;;;;;;;26.25;15.07;;;;;;;;;;5055758;28;20165;-52
2021/03/08 00:29:54;;;;;;;26.10;15.30;;;;;;;;;;5056378;28;20167;-51
2021/03/08 00:32:20;;;;;;;27.47;15.27;;;;;;;;;;5055687;28;20779;-51
2021/03/08 00:34:46;;;;;;;26.33;15.73;;;;;;;;;;5055604;28;20419;-51
2021/03/08 00:37:12;;;;;;;28.50;16.80;;;;;;;;;;5055045;28;20506;-51
2021/03/08 00:39:38;;;;;;;29.60;16.67;;;;;;;;;;5054878;28;20527;-51
2021/03/08 00:42:05;;;;;;;33.40;19.50;;;;;;;;;;5055152;28;20459;-51
2021/03/08 00:44:32;;;;;;;29.42;17.30;;;;;;;;;;5054654;28;20450;-50
2021/03/08 00:46:58;;;;;;;29.70;16.52;;;;;;;;;;5054878;28;20654;-50
2021/03/08 00:49:24;;;;;;;29.93;15.87;;;;;;;;;;5055404;28;20171;-51
2021/03/08 00:51:50;;;;;;;36.20;18.33;;;;;;;;;;5054319;28;20914;-51
2021/03/08 00:54:16;;;;;;;32.17;19.23;;;;;;;;;;5054124;28;20555;-51
2021/03/08 00:56:42;;;;;;;36.47;18.30;;;;;;;;;;5054311;28;20393;-51
2021/03/08 00:59:08;;;;;;;31.47;18.00;;;;;;;;;;5054228;28;20402;-51
2021/03/08 01:01:33;;;;;;;34.67;18.43;;;;;;;;;;5055032;28;20805;-51
2021/03/08 01:04:01;;;;;;;33.80;18.13;;;;;;;;;;5055198;28;20654;-51
2021/03/08 01:06:27;;;;;;;34.13;17.42;;;;;;;;;;5055634;28;20398;-50
2021/03/08 01:08:53;;;;;;;32.65;17.10;;;;;;;;;;5055940;28;20178;-50
2021/03/08 01:11:20;;;;;;;26.67;16.80;;;;;;;;;;5056128;28;20166;-51
2021/03/08 01:13:46;;;;;;;29.10;16.45;;;;;;;;;;5057935;28;20450;-52
2021/03/08 01:16:12;;;;;;;24.63;14.85;;;;;;;;;;5076309;28;20215;-51
2021/03/08 01:18:38;;;;;;;25.70;16.93;;;;;;;;;;5075557;28;20175;-51
2021/03/08 01:21:04;;;;;;;25.93;15.77;;;;;;;;;;5075384;28;20944;-51
2021/03/08 01:23:30;;;;;;;22.65;15.57;;;;;;;;;;5075468;28;20433;-51
2021/03/08 01:25:56;;;;;;;33.80;16.03;;;;;;;;;;5075209;28;20542;-50
2021/03/08 01:28:22;;;;;;;23.50;14.83;;;;;;;;;;5074741;28;20427;-49
2021/03/08 01:30:48;;;;;;;27.60;15.10;;;;;;;;;;5075577;28;20399;-50
2021/03/08 01:33:14;;;;;;;27.35;14.80;;;;;;;;;;5075331;28;20402;-51
2021/03/08 01:35:42;;;;;;;24.23;15.82;;;;;;;;;;5075673;28;20183;-50
2021/03/08 01:38:08;;;;;;;30.77;15.82;;;;;;;;;;5075416;28;20229;-51
2021/03/08 01:40:37;;;;;;;21.52;14.02;;;;;;;;;;5075317;28;20207;-51
2021/03/08 01:43:03;;;;;;;25.50;15.25;;;;;;;;;;5074212;28;20159;-52
2021/03/08 01:45:29;;;;;;;26.55;15.95;;;;;;;;;;5059846;28;20238;-50
2021/03/08 01:47:55;;;;;;;23.95;16.50;;;;;;;;;;5054686;28;20325;-51
2021/03/08 01:50:24;;;;;;;23.25;15.00;;;;;;;;;;5055347;28;20168;-50
2021/03/08 01:52:51;;;;;;;24.70;15.95;;;;;;;;;;5055361;28;20216;-50
2021/03/08 01:55:17;;;;;;;24.15;15.57;;;;;;;;;;5055076;28;20209;-51
2021/03/08 01:57:43;;;;;;;29.42;16.20;;;;;;;;;;5054393;28;20737;-51
2021/03/08 02:00:09;;;;;;;26.77;16.23;;;;;;;;;;5055817;28;20221;-51
2021/03/08 02:02:35;;;;;;;26.17;15.35;;;;;;;;;;5054845;28;20178;-52
2021/03/08 02:05:01;;;;;;;25.40;15.10;;;;;;;;;;5054164;28;20219;-51
2021/03/08 02:07:27;;;;;;;24.55;14.90;;;;;;;;;;5058469;28;20175;-52
2021/03/08 02:09:53;;;;;;;22.80;14.40;;;;;;;;;;5059252;28;20161;-51
2021/03/08 02:12:39;;;;;;;28.50;16.50;;;;;;;;;;5059825;28;20400;-51
2021/03/08 02:15:08;;;;;;;23.38;14.93;;;;;;;;;;5052093;28;20462;-51
2021/03/08 02:17:38;;;;;;;30.38;16.65;;;;;;;;;;5056962;28;20176;-51
2021/03/08 02:20:23;;;;;;;27.92;15.63;;;;;;;;;;5058520;28;20178;-50
2021/03/08 02:23:07;;;;;;;21.70;13.52;;;;;;;;;;5058247;28;20225;-51
2021/03/08 02:25:33;;;;;;;31.13;17.52;;;;;;;;;;5058479;28;20303;-51
2021/03/08 02:27:59;;;;;;;31.03;16.67;;;;;;;;;;5056610;28;20229;-51
2021/03/08 02:30:32;;;;;;;35.93;17.60;;;;;;;;;;5058560;28;20435;-51
2021/03/08 02:33:06;;;;;;;33.13;16.38;;;;;;;;;;5058665;28;21179;-51
2021/03/08 02:35:36;;;;;;;24.15;15.38;;;;;;;;;;5057967;28;20175;-52
2021/03/08 02:38:07;;;;;;;31.08;16.15;;;;;;;;;;5058709;28;20633;-51
2021/03/08 02:40:38;;;;;;;25.42;16.65;;;;;;;;;;5058147;28;20204;-50
2021/03/08 02:43:08;;;;;;;23.75;16.33;;;;;;;;;;5058309;28;20182;-51
2021/03/08 02:45:34;;;;;;;28.23;17.02;;;;;;;;;;5058503;28;20184;-51
2021/03/08 02:48:02;;;;;;;27.38;17.63;;;;;;;;;;5057840;28;20164;-51
2021/03/08 02:50:31;;;;;;;24.33;16.17;;;;;;;;;;5057894;28;20175;-51
2021/03/08 02:52:59;;;;;;;28.35;15.70;;;;;;;;;;5057522;28;20176;-51
2021/03/08 02:55:32;;;;;;;28.80;15.93;;;;;;;;;;5057845;28;20188;-51
2021/03/08 03:01:04;;;;;;;27.10;15.38;;;;;;;;;;5054738;28;20223;-51
2021/03/08 03:03:32;;;;;;;29.17;16.67;;;;;;;;;;5054822;28;20194;-49
2021/03/08 03:05:59;;;;;;;27.75;18.20;;;;;;;;;;5052709;28;20178;-50
2021/03/08 03:08:26;;;;;;;30.05;17.33;;;;;;;;;;5052143;28;20200;-53
2021/03/08 03:10:52;;;;;;;28.13;16.33;;;;;;;;;;5052589;28;20231;-49
2021/03/08 03:13:18;;;;;;;26.52;15.20;;;;;;;;;;5055906;28;20210;-49
2021/03/08 03:15:45;;;;;;;33.35;17.52;;;;;;;;;;5072285;28;20177;-49
2021/03/08 03:18:11;;;;;;;26.98;16.90;;;;;;;;;;5071416;28;20168;-49
2021/03/08 03:20:39;;;;;;;28.02;17.73;;;;;;;;;;5072163;28;20229;-52
2021/03/08 03:23:06;;;;;;;28.92;18.40;;;;;;;;;;5069952;28;20176;-49
2021/03/08 03:25:32;;;;;;;33.38;18.13;;;;;;;;;;5072102;28;20622;-50
2021/03/08 03:27:58;;;;;;;30.70;17.77;;;;;;;;;;5071538;28;20184;-53
2021/03/08 03:30:27;;;;;;;26.17;17.02;;;;;;;;;;5072123;28;20406;-50
2021/03/08 03:32:53;;;;;;;27.92;17.80;;;;;;;;;;5072003;28;20177;-49
2021/03/08 03:35:21;;;;;;;28.02;18.10;;;;;;;;;;5071783;28;20192;-49
2021/03/08 03:37:47;;;;;;;30.35;18.00;;;;;;;;;;5071747;28;20308;-50
2021/03/08 03:40:15;;;;;;;27.45;16.50;;;;;;;;;;5071832;28;20169;-49
2021/03/08 03:42:45;;;;;;;29.45;17.85;;;;;;;;;;5069529;28;20744;-49
2021/03/08 03:45:11;;;;;;;28.25;17.38;;;;;;;;;;5071756;28;20198;-50
2021/03/08 03:47:41;;;;;;;36.45;19.00;;;;;;;;;;5071774;28;20201;-49
2021/03/08 03:50:08;;;;;;;35.15;19.88;;;;;;;;;;5071793;28;20168;-49
2021/03/08 03:52:35;;;;;;;31.10;19.15;;;;;;;;;;5071800;28;20194;-51
2021/03/08 03:55:02;;;;;;;33.20;18.83;;;;;;;;;;5071385;28;20700;-49
2021/03/08 03:57:34;;;;;;;33.38;19.70;;;;;;;;;;5071266;28;20226;-49
2021/03/08 04:00:01;;;;;;;35.75;19.35;;;;;;;;;;5071333;28;20174;-51
2021/03/08 04:02:42;;;;;;;37.20;19.05;;;;;;;;;;5071196;28;20170;-50
2021/03/08 04:05:09;;;;;;;39.45;19.85;;;;;;;;;;5071352;28;20296;-51
2021/03/08 04:07:36;;;;;;;29.65;18.38;;;;;;;;;;5070895;28;20166;-53
2021/03/08 04:10:04;;;;;;;29.60;18.08;;;;;;;;;;5071223;28;20191;-49
2021/03/08 04:12:33;;;;;;;31.27;19.30;;;;;;;;;;5066623;28;20186;-49
2021/03/08 04:15:01;;;;;;;35.05;19.27;;;;;;;;;;5051055;28;20193;-52
2021/03/08 04:17:28;;;;;;;30.17;18.00;;;;;;;;;;5050889;28;20177;-49
2021/03/08 04:19:55;;;;;;;31.70;19.75;;;;;;;;;;5051137;28;20173;-50
2021/03/08 04:22:24;;;;;;;40.00;20.70;;;;;;;;;;5050890;28;20866;-49
2021/03/08 04:24:52;;;;;;;35.60;19.92;;;;;;;;;;5050900;28;20205;-50
2021/03/08 04:27:19;;;;;;;32.90;18.45;;;;;;;;;;5050551;28;20243;-49
2021/03/08 04:29:45;;;;;;;33.63;20.83;;;;;;;;;;5050152;28;20193;-49
2021/03/08 04:32:12;;;;;;;36.10;19.20;;;;;;;;;;5050947;28;20317;-49
2021/03/08 04:34:38;;;;;;;34.80;19.73;;;;;;;;;;5050686;28;20417;-52
2021/03/08 04:37:05;;;;;;;30.70;20.05;;;;;;;;;;5050592;28;20167;-49
2021/03/08 04:39:33;;;;;;;35.47;19.65;;;;;;;;;;5050699;28;20170;-50
2021/03/08 04:42:00;;;;;;;36.35;20.17;;;;;;;;;;5050009;28;20577;-49
2021/03/08 04:44:26;;;;;;;36.97;20.10;;;;;;;;;;5050677;28;20197;-49
2021/03/08 04:46:52;;;;;;;38.78;20.75;;;;;;;;;;5050766;28;20170;-54
2021/03/08 04:49:19;;;;;;;41.75;20.73;;;;;;;;;;5050553;28;20193;-49
2021/03/08 04:51:46;;;;;;;40.33;19.33;;;;;;;;;;5050706;28;20166;-51
2021/03/08 04:54:12;;;;;;;41.33;20.30;;;;;;;;;;5050401;28;20198;-50
2021/03/08 04:56:38;;;;;;;48.53;21.65;;;;;;;;;;5050539;28;20223;-49
2021/03/08 04:59:04;;;;;;;39.65;19.85;;;;;;;;;;5050385;28;20172;-49
2021/03/08 05:01:34;;;;;;;33.33;20.00;;;;;;;;;;5050488;28;20612;-49
2021/03/08 05:04:00;;;;;;;36.67;20.42;;;;;;;;;;5050542;28;20413;-52
2021/03/08 05:06:28;;;;;;;34.40;19.77;;;;;;;;;;5050268;28;20171;-49
2021/03/08 05:08:54;;;;;;;34.97;20.50;;;;;;;;;;5050391;28;20243;-49
2021/03/08 05:11:20;;;;;;;32.50;19.92;;;;;;;;;;5050328;28;20228;-50
2021/03/08 05:13:48;;;;;;;38.45;19.17;;;;;;;;;;5049866;28;20563;-49
2021/03/08 05:16:15;;;;;;;39.83;21.50;;;;;;;;;;5050275;28;20221;-49
2021/03/08 05:18:41;;;;;;;36.30;20.17;;;;;;;;;;5050283;28;20183;-49
2021/03/08 05:21:08;;;;;;;33.60;20.27;;;;;;;;;;5050157;28;20199;-49
2021/03/08 05:23:34;;;;;;;40.53;21.20;;;;;;;;;;5050604;28;20198;-52
2021/03/08 05:26:01;;;;;;;34.88;21.65;;;;;;;;;;5050274;28;20693;-52
2021/03/08 05:28:28;;;;;;;35.08;20.33;;;;;;;;;;5050063;28;20193;-49
2021/03/08 05:30:54;;;;;;;40.80;22.40;;;;;;;;;;5050476;28;20192;-49
2021/03/08 05:33:24;;;;;;;34.75;20.95;;;;;;;;;;5050363;28;20304;-49
2021/03/08 05:35:51;;;;;;;43.42;19.70;;;;;;;;;;5050386;28;20257;-49
2021/03/08 05:38:20;;;;;;;37.40;20.58;;;;;;;;;;5049911;28;20170;-49
2021/03/08 05:40:47;;;;;;;44.67;20.98;;;;;;;;;;5052358;28;20239;-50
2021/03/08 05:43:14;;;;;;;40.97;21.17;;;;;;;;;;5053601;28;20190;-52
2021/03/08 05:45:58;;;;;;;35.67;21.02;;;;;;;;;;5054067;28;20227;-49
2021/03/08 05:48:39;;;;;;;33.75;19.10;;;;;;;;;;5053536;28;20577;-49
2021/03/08 05:51:12;;;;;;;39.08;20.42;;;;;;;;;;5053939;28;20163;-50
2021/03/08 05:53:50;;;;;;;34.90;19.58;;;;;;;;;;5053771;28;20328;-50
2021/03/08 05:56:20;;;;;;;39.95;20.23;;;;;;;;;;5053759;28;20196;-50
2021/03/08 05:59:04;;;;;;;39.75;20.83;;;;;;;;;;5053387;28;20239;-52
2021/03/08 06:01:50;;;;;;;34.25;19.75;;;;;;;;;;5053805;28;20609;-50
2021/03/08 06:04:35;;;;;;;47.88;22.48;;;;;;;;;;5046286;28;20728;-50
2021/03/08 06:07:19;;;;;;;37.28;21.40;;;;;;;;;;5053302;28;20167;-51
2021/03/08 06:10:03;;;;;;;50.28;24.05;;;;;;;;;;5053440;28;20170;-52
2021/03/08 06:12:32;;;;;;;47.33;24.70;;;;;;;;;;5053220;28;20193;-50
2021/03/08 06:15:01;;;;;;;38.30;22.77;;;;;;;;;;5053121;28;20530;-52
2021/03/08 06:17:29;;;;;;;39.45;22.00;;;;;;;;;;5053125;28;20170;-50
2021/03/08 06:19:56;;;;;;;38.45;21.77;;;;;;;;;;5053445;28;20183;-49
2021/03/08 06:22:22;;;;;;;44.15;23.10;;;;;;;;;;5053392;28;20209;-50
2021/03/08 06:24:48;;;;;;;44.67;22.73;;;;;;;;;;5053144;28;20661;-50
2021/03/08 06:27:15;;;;;;;50.03;22.90;;;;;;;;;;5052939;28;20195;-50
2021/03/08 06:29:41;;;;;;;43.38;23.50;;;;;;;;;;5053161;28;20436;-52
2021/03/08 06:32:08;;;;;;;51.05;24.85;;;;;;;;;;5052996;28;20180;-51
2021/03/08 06:34:34;;;;;;;51.42;25.70;;;;;;;;;;5053051;28;20546;-50
2021/03/08 06:37:07;;;;;;;46.22;24.13;;;;;;;;;;5052733;28;20185;-49
2021/03/08 06:39:40;;;;;;;60.10;26.15;;;;;;;;;;5052768;28;20265;-50
2021/03/08 06:42:06;;;;;;;53.50;25.25;;;;;;;;;;5072407;28;20768;-50
2021/03/08 06:44:33;;;;;;;51.30;24.85;;;;;;;;;;5072833;28;20178;-50
2021/03/08 06:47:00;;;;;;;56.55;27.55;;;;;;;;;;5072730;28;20211;-49
2021/03/08 06:49:26;;;;;;;56.72;28.63;;;;;;;;;;5072917;28;20226;-50
2021/03/08 06:52:04;;;;;;;53.88;26.85;;;;;;;;;;5071903;28;20174;-52
2021/03/08 06:54:30;;;;;;;51.17;26.35;;;;;;;;;;5072479;28;20275;-49
2021/03/08 06:56:56;;;;;;;50.17;26.40;;;;;;;;;;5071649;28;20219;-53
2021/03/08 06:59:22;;;;;;;59.63;26.60;;;;;;;;;;5072278;28;20669;-52
2021/03/08 07:01:51;;;;;;;54.03;26.65;;;;;;;;;;5072126;28;20453;-53
2021/03/08 07:04:24;;;;;;;45.65;27.65;;;;;;;;;;5072106;28;20548;-51
2021/03/08 07:06:57;;;;;;;51.53;25.77;;;;;;;;;;5072162;28;20553;-49
2021/03/08 07:09:23;;;;;;;59.38;29.65;;;;;;;;;;5068358;28;20234;-50
2021/03/08 07:12:04;;;;;;;61.90;29.37;;;;;;;;;;5052104;28;20174;-50
2021/03/08 07:14:29;;;;;;;52.95;27.48;;;;;;;;;;5051768;28;20426;-49
2021/03/08 07:16:55;;;;;;;60.57;27.77;;;;;;;;;;5051410;28;20622;-50
2021/03/08 07:19:21;;;;;;;57.23;29.50;;;;;;;;;;5051679;28;20453;-51
2021/03/08 07:21:51;;;;;;;61.40;30.00;;;;;;;;;;5051709;28;20455;-50
2021/03/08 07:24:17;;;;;;;62.33;29.00;;;;;;;;;;5051774;28;20425;-52
2021/03/08 07:26:50;;;;;;;59.33;29.58;;;;;;;;;;5052042;28;20538;-51
2021/03/08 07:29:16;;;;;;;53.38;26.23;;;;;;;;;;5051857;28;20611;-49
2021/03/08 07:31:44;;;;;;;60.75;29.05;;;;;;;;;;5052112;28;20171;-49
2021/03/08 07:34:12;;;;;;;56.75;26.58;;;;;;;;;;5051817;28;20193;-52
2021/03/08 07:36:38;;;;;;;59.55;27.35;;;;;;;;;;5051780;28;20195;-50
2021/03/08 07:39:14;;;;;;;59.08;28.13;;;;;;;;;;5051107;28;20163;-49
2021/03/08 07:41:52;;;;;;;57.45;29.55;;;;;;;;;;5052080;28;20198;-50
2021/03/08 07:44:20;;;;;;;63.60;30.05;;;;;;;;;;5051723;28;20281;-49
2021/03/08 07:46:46;;;;;;;56.45;27.25;;;;;;;;;;5051527;28;20175;-51
2021/03/08 07:49:12;;;;;;;60.10;29.33;;;;;;;;;;5051403;28;20182;-51
2021/03/08 07:51:58;;;;;;;65.30;30.27;;;;;;;;;;5051484;28;20415;-49
2021/03/08 07:54:24;;;;;;;64.90;30.30;;;;;;;;;;5051404;28;20428;-50
2021/03/08 07:56:50;;;;;;;66.57;30.50;;;;;;;;;;5051430;28;20174;-50
2021/03/08 07:59:18;;;;;;;63.25;30.30;;;;;;;;;;5051397;28;20405;-50
2021/03/08 08:01:43;;;;;;;56.47;29.20;;;;;;;;;;5051121;28;20191;-52
2021/03/08 08:04:09;;;;;;;62.47;30.80;;;;;;;;;;5051317;28;20190;-49
2021/03/08 08:06:36;;;;;;;56.37;29.87;;;;;;;;;;5050964;28;20481;-49
2021/03/08 08:09:03;;;;;;;61.72;29.98;;;;;;;;;;5050522;28;20427;-49
2021/03/08 08:11:29;;;;;;;56.13;28.98;;;;;;;;;;5050950;28;20166;-52
2021/03/08 08:14:02;;;;;;;63.33;31.63;;;;;;;;;;5051060;28;20649;-49
2021/03/08 08:16:35;;;;;;;67.47;31.15;;;;;;;;;;5051323;28;20175;-49
2021/03/08 08:19:06;;;;;;;68.60;32.17;;;;;;;;;;5050730;28;20545;-49
2021/03/08 08:21:39;;;;;;;68.50;29.20;;;;;;;;;;5050961;28;20202;-49
2021/03/08 08:24:06;;;;;;;65.68;30.17;;;;;;;;;;5050860;28;20193;-49
2021/03/08 08:26:32;;;;;;;73.03;31.13;;;;;;;;;;5050878;28;20172;-51
2021/03/08 08:28:58;;;;;;;77.68;35.47;;;;;;;;;;5053509;28;20191;-52
2021/03/08 08:31:28;;;;;;;76.47;34.97;;;;;;;;;;5062882;28;20183;-50
2021/03/08 08:33:55;;;;;;;80.78;34.15;;;;;;;;;;5074315;28;20241;-50
2021/03/08 08:36:28;;;;;;;70.30;32.27;;;;;;;;;;5070861;28;20178;-50
2021/03/08 08:38:54;;;;;;;78.90;35.28;;;;;;;;;;5067036;28;20434;-50
2021/03/08 08:41:38;;;;;;;73.50;33.13;;;;;;;;;;5070744;28;20245;-50
2021/03/08 08:44:12;;;;;;;73.63;32.35;;;;;;;;;;5069447;28;20461;-50
2021/03/08 08:46:39;;;;;;;72.95;33.35;;;;;;;;;;5069164;28;20645;-50
2021/03/08 08:49:15;;;;;;;70.35;32.55;;;;;;;;;;5050007;28;20238;-50
2021/03/08 08:51:49;;;;;;;87.70;35.08;;;;;;;;;;5050558;28;20177;-50
2021/03/08 08:54:28;;;;;;;77.28;32.72;;;;;;;;;;5050520;28;20193;-50
2021/03/08 08:57:08;;;;;;;74.35;32.72;;;;;;;;;;5054633;28;20580;-50
2021/03/08 08:59:35;;;;;;;75.50;31.55;;;;;;;;;;5070531;28;20201;-51
2021/03/08 09:02:24;;;;;;;75.30;33.05;;;;;;;;;;5070329;28;20236;-50
2021/03/08 09:04:50;;;;;;;72.30;35.40;;;;;;;;;;5062261;28;20195;-49
2021/03/08 09:07:26;;;;;;;77.80;36.58;;;;;;;;;;5070230;28;20170;-50
2021/03/08 09:09:53;;;;;;;89.10;37.20;;;;;;;;;;5055803;28;20219;-49
2021/03/08 09:12:36;;;;;;;77.43;35.03;;;;;;;;;;5050490;28;20169;-54
2021/03/08 09:15:11;;;;;;;92.28;38.20;;;;;;;;;;5051721;28;20193;-50
2021/03/08 09:17:48;;;;;;;83.68;37.53;;;;;;;;;;5054600;28;20178;-49
2021/03/08 09:20:14;;;;;;;97.78;39.88;;;;;;;;;;5054670;28;20166;-51
2021/03/08 09:22:49;;;;;;;87.30;38.93;;;;;;;;;;5054393;28;20257;-53
2021/03/08 09:25:15;;;;;;;84.00;39.50;;;;;;;;;;5054664;28;20417;-49
2021/03/08 09:27:43;;;;;;;96.20;40.38;;;;;;;;;;5053894;28;20167;-49
2021/03/08 09:30:09;;;;;;;105.40;41.15;;;;;;;;;;5054318;28;20165;-49
2021/03/08 09:32:35;;;;;;;90.43;40.30;;;;;;;;;;5054313;28;20174;-50
2021/03/08 09:35:02;;;;;;;95.25;36.72;;;;;;;;;;5053901;28;20209;-49
2021/03/08 09:37:29;;;;;;;95.35;39.83;;;;;;;;;;5053822;28;20177;-50
2021/03/08 09:39:56;;;;;;;112.95;40.30;;;;;;;;;;5054600;28;20703;-52
2021/03/08 09:42:22;;;;;;;100.40;42.47;;;;;;;;;;5053940;28;20328;-52
2021/03/08 09:44:49;;;;;;;100.57;41.10;;;;;;;;;;5053789;28;20740;-49
2021/03/08 09:47:15;;;;;;;100.57;42.42;;;;;;;;;;5053759;28;20186;-50
2021/03/08 09:49:47;;;;;;;121.20;44.88;;;;;;;;;;5053793;28;20537;-50
2021/03/08 09:52:14;;;;;;;97.95;41.38;;;;;;;;;;5053911;28;20192;-50
2021/03/08 09:54:49;;;;;;;109.88;42.35;;;;;;;;;;5053744;28;20686;-49
2021/03/08 09:57:53;;;;;;;96.65;39.47;;;;;;;;;;5053559;28;20657;-51
2021/03/08 10:00:24;;;;;;;99.90;40.45;;;;;;;;;;5030930;28;20179;-49
2021/03/08 10:03:00;;;;;;;96.25;39.83;;;;;;;;;;5031243;28;20172;-49
2021/03/08 10:05:46;;;;;;;101.00;41.28;;;;;;;;;;5043720;28;20652;-49
2021/03/08 10:08:13;;;;;;;109.03;42.30;;;;;;;;;;5053402;28;20187;-50
2021/03/08 10:10:50;;;;;;;97.53;38.83;;;;;;;;;;5053468;28;20659;-50
2021/03/08 10:13:17;;;;;;;115.63;45.90;;;;;;;;;;5053640;28;20208;-50
2021/03/08 10:15:56;;;;;;;99.65;41.83;;;;;;;;;;5053519;28;20175;-52
2021/03/08 10:18:26;;;;;;;108.97;43.08;;;;;;;;;;5052983;28;20174;-50
2021/03/08 10:20:54;;;;;;;92.40;40.17;;;;;;;;;;5053251;28;20565;-49
2021/03/08 10:23:21;;;;;;;114.75;42.65;;;;;;;;;;5052961;28;20171;-51
2021/03/08 10:25:47;;;;;;;114.35;43.47;;;;;;;;;;5052916;28;20171;-50
2021/03/08 10:28:13;;;;;;;113.45;43.30;;;;;;;;;;5051887;28;20183;-49
2021/03/08 10:30:40;;;;;;;121.70;44.38;;;;;;;;;;5053194;28;20262;-50
2021/03/08 10:33:07;;;;;;;107.75;43.40;;;;;;;;;;5057835;28;20209;-51
2021/03/08 10:35:37;;;;;;;119.40;43.78;;;;;;;;;;5073059;28;20170;-49
2021/03/08 10:38:04;;;;;;;107.03;42.28;;;;;;;;;;5068482;28;20182;-51
2021/03/08 10:40:30;;;;;;;121.43;43.72;;;;;;;;;;5053038;28;20245;-49
2021/03/08 10:42:57;;;;;;;113.82;42.75;;;;;;;;;;5052725;28;20607;-50
2021/03/08 10:45:23;;;;;;;120.50;46.30;;;;;;;;;;5052846;28;20256;-50
2021/03/08 10:48:08;;;;;;;115.03;44.40;;;;;;;;;;5066092;28;20228;-50
2021/03/08 10:50:53;;;;;;;113.70;44.92;;;;;;;;;;5072946;28;20163;-49
2021/03/08 10:53:20;;;;;;;124.68;42.60;;;;;;;;;;5072759;28;20178;-51
2021/03/08 10:55:47;;;;;;;105.15;42.15;;;;;;;;;;5072807;28;20526;-50
2021/03/08 10:58:14;;;;;;;119.78;45.28;;;;;;;;;;5072522;28;20698;-49
2021/03/08 11:00:41;;;;;;;129.20;47.58;;;;;;;;;;5072374;28;20198;-50
2021/03/08 11:03:06;;;;;;;105.22;43.72;;;;;;;;;;5072632;28;20170;-49
2021/03/08 11:05:33;;;;;;;112.17;43.80;;;;;;;;;;5072461;28;20166;-50
2021/03/08 11:08:00;;;;;;;102.35;42.28;;;;;;;;;;5068653;28;20430;-50
2021/03/08 11:10:33;;;;;;;107.15;44.30;;;;;;;;;;5066679;28;20622;-50
2021/03/08 11:13:03;;;;;;;114.93;43.60;;;;;;;;;;5072564;28;20167;-49
2021/03/08 11:15:30;;;;;;;127.00;46.70;;;;;;;;;;5072222;28;20254;-49
2021/03/08 11:17:56;;;;;;;111.35;42.63;;;;;;;;;;5072289;28;20245;-49
2021/03/08 11:20:24;;;;;;;132.52;45.35;;;;;;;;;;5072402;28;20194;-49
2021/03/08 11:22:53;;;;;;;110.00;44.72;;;;;;;;;;5070096;28;20175;-53
2021/03/08 11:25:25;;;;;;;127.68;46.60;;;;;;;;;;5072185;28;20196;-51
2021/03/08 11:27:51;;;;;;;108.47;44.80;;;;;;;;;;5071561;28;20231;-50
2021/03/08 11:30:18;;;;;;;117.38;45.08;;;;;;;;;;5072069;28;20177;-50
2021/03/08 11:32:44;;;;;;;99.43;41.88;;;;;;;;;;5071717;28;20170;-50
2021/03/08 11:35:17;;;;;;;111.18;43.15;;;;;;;;;;5071908;28;20737;-49
2021/03/08 11:37:50;;;;;;;118.45;43.35;;;;;;;;;;5071099;28;20171;-50
2021/03/08 11:40:17;;;;;;;117.60;45.45;;;;;;;;;;5063752;28;20171;-50
2021/03/08 11:42:43;;;;;;;119.85;45.88;;;;;;;;;;5065344;28;20273;-50
2021/03/08 11:45:09;;;;;;;116.80;45.38;;;;;;;;;;5051597;28;20703;-51
2021/03/08 11:47:35;;;;;;;112.15;44.55;;;;;;;;;;5051205;28;20254;-50
2021/03/08 11:50:01;;;;;;;101.95;42.38;;;;;;;;;;5054057;28;20229;-51
2021/03/08 11:52:27;;;;;;;106.50;41.47;;;;;;;;;;5051446;28;20803;-51
2021/03/08 11:54:53;;;;;;;98.43;40.50;;;;;;;;;;5051392;28;20475;-51
2021/03/08 11:57:20;;;;;;;96.18;40.70;;;;;;;;;;5051251;28;20948;-51
2021/03/08 11:59:46;;;;;;;102.15;41.10;;;;;;;;;;5051595;28;20677;-50
2021/03/08 12:02:12;;;;;;;98.15;40.25;;;;;;;;;;5051331;28;20289;-51
2021/03/08 12:04:38;;;;;;;113.17;45.17;;;;;;;;;;5051326;28;20278;-50
2021/03/08 12:07:04;;;;;;;108.93;43.33;;;;;;;;;;5051055;28;20397;-51
2021/03/08 12:09:33;;;;;;;109.90;42.40;;;;;;;;;;5064670;28;20179;-51
2021/03/08 12:11:59;;;;;;;99.55;40.20;;;;;;;;;;5071394;28;20230;-50
2021/03/08 12:14:25;;;;;;;96.72;38.70;;;;;;;;;;5069680;28;20288;-50
2021/03/08 12:16:51;;;;;;;105.83;41.13;;;;;;;;;;5070940;28;20304;-50
2021/03/08 12:19:17;;;;;;;104.70;42.20;;;;;;;;;;5069596;28;20413;-50
2021/03/08 12:21:45;;;;;;;118.60;40.95;;;;;;;;;;5071020;28;20555;-50
2021/03/08 12:24:11;;;;;;;104.15;42.28;;;;;;;;;;5070850;28;20181;-50
2021/03/08 12:26:37;;;;;;;97.40;42.40;;;;;;;;;;5070907;28;20167;-50
2021/03/08 12:29:03;;;;;;;90.53;38.10;;;;;;;;;;5070712;28;20185;-51
2021/03/08 12:31:29;;;;;;;95.73;39.70;;;;;;;;;;5070858;28;20249;-50
2021/03/08 12:33:55;;;;;;;108.18;39.63;;;;;;;;;;5070904;28;20443;-50
2021/03/08 12:36:21;;;;;;;85.87;36.73;;;;;;;;;;5070767;28;20262;-50
2021/03/08 12:38:47;;;;;;;97.03;40.53;;;;;;;;;;5061259;28;20504;-51
2021/03/08 12:41:13;;;;;;;87.30;36.75;;;;;;;;;;5050659;28;20457;-51
2021/03/08 12:43:40;;;;;;;83.83;38.80;;;;;;;;;;5050865;28;20182;-51
2021/03/08 12:46:06;;;;;;;95.03;38.35;;;;;;;;;;5050798;28;20917;-50
2021/03/08 12:48:32;;;;;;;87.77;39.37;;;;;;;;;;5050526;28;20180;-50
2021/03/08 12:50:58;;;;;;;106.77;42.30;;;;;;;;;;5050161;28;20404;-50
2021/03/08 12:53:24;;;;;;;93.70;36.97;;;;;;;;;;5050710;28;20408;-50
2021/03/08 12:55:50;;;;;;;93.55;39.13;;;;;;;;;;5051189;28;20413;-52
2021/03/08 12:58:16;;;;;;;89.78;39.00;;;;;;;;;;5050641;28;20171;-51
2021/03/08 13:00:42;;;;;;;95.18;38.42;;;;;;;;;;5050604;28;20261;-50
2021/03/08 13:03:08;;;;;;;93.73;39.03;;;;;;;;;;5050449;28;20165;-50
2021/03/08 13:05:34;;;;;;;83.20;36.60;;;;;;;;;;5050677;28;20794;-50
2021/03/08 13:08:00;;;;;;;82.40;37.90;;;;;;;;;;5050160;28;20409;-50
2021/03/08 13:10:27;;;;;;;96.53;37.20;;;;;;;;;;5067422;28;20424;-50
2021/03/08 13:12:52;;;;;;;99.32;38.25;;;;;;;;;;5058530;28;20435;-50
2021/03/08 13:15:18;;;;;;;92.23;38.33;;;;;;;;;;5050255;28;20192;-50
2021/03/08 13:17:44;;;;;;;101.90;38.80;;;;;;;;;;5050258;28;20467;-51
2021/03/08 13:20:14;;;;;;;101.03;38.27;;;;;;;;;;5068657;28;20175;-51
2021/03/08 13:22:41;;;;;;;104.82;39.15;;;;;;;;;;5070435;28;20457;-51
2021/03/08 13:25:08;;;;;;;97.93;38.60;;;;;;;;;;5070348;28;20194;-50
2021/03/08 13:27:34;;;;;;;83.10;38.33;;;;;;;;;;5069987;28;20205;-50
2021/03/08 13:30:00;;;;;;;85.68;36.88;;;;;;;;;;5070198;28;20653;-50
2021/03/08 13:32:26;;;;;;;96.63;38.87;;;;;;;;;;5070328;28;20166;-50
2021/03/08 13:34:52;;;;;;;106.07;38.97;;;;;;;;;;5070174;28;20945;-51
2021/03/08 13:37:18;;;;;;;99.40;39.45;;;;;;;;;;5069915;28;20457;-50
2021/03/08 13:39:44;;;;;;;116.77;41.40;;;;;;;;;;5062021;28;20269;-50
2021/03/08 13:42:10;;;;;;;97.95;39.25;;;;;;;;;;5050124;28;20505;-50
2021/03/08 13:44:36;;;;;;;97.97;35.72;;;;;;;;;;5050074;28;20283;-50
2021/03/08 13:47:02;;;;;;;96.03;39.57;;;;;;;;;;5049779;28;20662;-50
2021/03/08 13:49:28;;;;;;;93.47;38.13;;;;;;;;;;5050085;28;20394;-50
2021/03/08 13:51:54;;;;;;;101.28;41.00;;;;;;;;;;5050004;28;20246;-51
2021/03/08 13:54:20;;;;;;;104.80;41.77;;;;;;;;;;5050062;28;20291;-50
2021/03/08 13:56:46;;;;;;;92.07;38.10;;;;;;;;;;5049887;28;20401;-50
2021/03/08 13:59:12;;;;;;;104.97;41.30;;;;;;;;;;5049745;28;20411;-50
2021/03/08 14:01:38;;;;;;;98.13;40.55;;;;;;;;;;5051932;28;20448;-51
2021/03/08 14:04:05;;;;;;;93.22;38.47;;;;;;;;;;5053386;28;20656;-51
2021/03/08 14:06:30;;;;;;;93.32;40.05;;;;;;;;;;5053769;28;20176;-51
2021/03/08 14:08:56;;;;;;;99.50;38.80;;;;;;;;;;5053220;28;20585;-51
2021/03/08 14:11:22;;;;;;;97.33;40.07;;;;;;;;;;5052957;28;20469;-50
2021/03/08 14:13:48;;;;;;;110.43;43.60;;;;;;;;;;5053288;28;20421;-51
2021/03/08 14:16:14;;;;;;;115.47;44.73;;;;;;;;;;5053261;28;20492;-50
2021/03/08 14:18:40;;;;;;;112.87;43.70;;;;;;;;;;5053004;28;20402;-50
2021/03/08 14:21:06;;;;;;;112.43;44.10;;;;;;;;;;5053294;28;20485;-50
2021/03/08 14:23:32;;;;;;;125.50;47.33;;;;;;;;;;5053154;28;20424;-50